sensor_id;sensor_type;location;lat;lon;timestamp;pressure;altitude;pressure_sealevel;temperature;humidity
11345;BME280;5727;42.600;23.028;2022-08-07T00:01:38;93459.63;;;22.31;80.56
11345;BME280;5727;42.600;23.028;2022-08-07T00:04:05;93454.34;;;22.28;80.56
11345;BME280;5727;42.600;23.028;2022-08-07T00:06:32;93452.94;;;22.20;80.74
11345;BME280;5727;42.600;23.028;2022-08-07T00:08:59;93446.50;;;22.17;80.88
11345;BME280;5727;42.600;23.028;2022-08-07T00:11:25;93448.09;;;22.15;80.62
11345;BME280;5727;42.600;23.028;2022-08-07T00:13:52;93449.28;;;22.10;80.81
11345;BME280;5727;42.600;23.028;2022-08-07T00:16:19;93443.94;;;22.10;81.91
11345;BME280;5727;42.600;23.028;2022-08-07T00:18:47;93441.56;;;22.16;81.95
11345;BME280;5727;42.600;23.028;2022-08-07T00:21:14;93446.56;;;22.14;82.27
11345;BME280;5727;42.600;23.028;2022-08-07T00:23:41;93445.78;;;22.13;82.08
11345;BME280;5727;42.600;23.028;2022-08-07T00:26:10;93448.53;;;22.10;82.50
11345;BME280;5727;42.600;23.028;2022-08-07T00:28:37;93458.53;;;22.02;82.33
11345;BME280;5727;42.600;23.028;2022-08-07T00:31:07;93454.16;;;21.89;83.20
11345;BME280;5727;42.600;23.028;2022-08-07T00:33:35;93460.03;;;21.76;83.95
11345;BME280;5727;42.600;23.028;2022-08-07T00:36:04;93460.63;;;21.57;84.74
11345;BME280;5727;42.600;23.028;2022-08-07T00:38:32;93459.44;;;21.62;84.68
11345;BME280;5727;42.600;23.028;2022-08-07T00:41:01;93458.28;;;21.63;84.57
11345;BME280;5727;42.600;23.028;2022-08-07T00:43:29;93461.78;;;21.56;84.78
11345;BME280;5727;42.600;23.028;2022-08-07T00:45:56;93457.53;;;21.62;85.03
11345;BME280;5727;42.600;23.028;2022-08-07T00:48:22;93462.19;;;21.55;85.23
11345;BME280;5727;42.600;23.028;2022-08-07T00:50:49;93460.06;;;21.43;86.00
11345;BME280;5727;42.600;23.028;2022-08-07T00:53:18;93463.22;;;21.34;87.13
11345;BME280;5727;42.600;23.028;2022-08-07T00:55:45;93464.63;;;21.42;86.68
11345;BME280;5727;42.600;23.028;2022-08-07T00:58:11;93460.09;;;21.39;86.48
11345;BME280;5727;42.600;23.028;2022-08-07T01:00:38;93461.22;;;21.38;86.76
11345;BME280;5727;42.600;23.028;2022-08-07T01:03:05;93457.78;;;21.41;86.39
11345;BME280;5727;42.600;23.028;2022-08-07T01:05:32;93464.63;;;21.42;86.76
11345;BME280;5727;42.600;23.028;2022-08-07T01:07:59;93462.66;;;21.46;86.71
11345;BME280;5727;42.600;23.028;2022-08-07T01:10:27;93466.50;;;21.45;86.80
11345;BME280;5727;42.600;23.028;2022-08-07T01:12:54;93465.84;;;21.38;87.42
11345;BME280;5727;42.600;23.028;2022-08-07T01:15:22;93470.03;;;21.35;87.20
11345;BME280;5727;42.600;23.028;2022-08-07T01:17:49;93468.50;;;21.38;87.09
11345;BME280;5727;42.600;23.028;2022-08-07T01:20:21;93473.88;;;21.34;87.96
11345;BME280;5727;42.600;23.028;2022-08-07T01:22:53;93478.47;;;21.30;87.88
11345;BME280;5727;42.600;23.028;2022-08-07T01:25:20;93466.31;;;21.29;87.64
11345;BME280;5727;42.600;23.028;2022-08-07T01:27:47;93466.31;;;21.29;87.81
11345;BME280;5727;42.600;23.028;2022-08-07T01:30:15;93470.13;;;21.28;87.63
11345;BME280;5727;42.600;23.028;2022-08-07T01:32:43;93465.63;;;21.22;87.95
11345;BME280;5727;42.600;23.028;2022-08-07T01:35:10;93469.81;;;21.19;88.03
11345;BME280;5727;42.600;23.028;2022-08-07T01:37:37;93462.47;;;20.93;90.25
11345;BME280;5727;42.600;23.028;2022-08-07T01:40:07;93468.28;;;20.81;91.38
11345;BME280;5727;42.600;23.028;2022-08-07T01:42:35;93460.69;;;20.79;91.54
11345;BME280;5727;42.600;23.028;2022-08-07T01:45:02;93470.59;;;20.79;91.97
11345;BME280;5727;42.600;23.028;2022-08-07T01:47:29;93456.50;;;20.82;92.51
11345;BME280;5727;42.600;23.028;2022-08-07T01:49:56;93456.88;;;20.84;92.22
11345;BME280;5727;42.600;23.028;2022-08-07T01:52:24;93463.28;;;20.86;92.23
11345;BME280;5727;42.600;23.028;2022-08-07T01:54:55;93465.94;;;20.90;92.29
11345;BME280;5727;42.600;23.028;2022-08-07T01:57:27;93467.06;;;20.89;92.27
11345;BME280;5727;42.600;23.028;2022-08-07T01:59:58;93466.69;;;20.90;91.89
11345;BME280;5727;42.600;23.028;2022-08-07T02:02:30;93477.38;;;20.87;91.50
11345;BME280;5727;42.600;23.028;2022-08-07T02:05:03;93477.69;;;20.92;91.76
11345;BME280;5727;42.600;23.028;2022-08-07T02:07:35;93484.91;;;20.92;91.78
11345;BME280;5727;42.600;23.028;2022-08-07T02:10:04;93489.09;;;20.93;92.00
11345;BME280;5727;42.600;23.028;2022-08-07T02:12:37;93488.31;;;20.96;92.27
11345;BME280;5727;42.600;23.028;2022-08-07T02:15:07;93497.00;;;21.00;92.28
11345;BME280;5727;42.600;23.028;2022-08-07T02:17:36;93514.91;;;21.03;91.66
11345;BME280;5727;42.600;23.028;2022-08-07T02:20:05;93520.22;;;21.07;91.67
11345;BME280;5727;42.600;23.028;2022-08-07T02:22:35;93535.06;;;21.04;91.77
11345;BME280;5727;42.600;23.028;2022-08-07T02:25:04;93542.66;;;21.06;91.86
11345;BME280;5727;42.600;23.028;2022-08-07T02:27:33;93535.78;;;21.08;91.24
11345;BME280;5727;42.600;23.028;2022-08-07T02:30:03;93536.50;;;21.12;91.14
11345;BME280;5727;42.600;23.028;2022-08-07T02:32:32;93535.75;;;21.12;90.03
11345;BME280;5727;42.600;23.028;2022-08-07T02:35:01;93536.59;;;21.05;90.57
11345;BME280;5727;42.600;23.028;2022-08-07T02:37:31;93528.16;;;21.10;90.41
11345;BME280;5727;42.600;23.028;2022-08-07T02:40:00;93527.34;;;21.13;89.83
11345;BME280;5727;42.600;23.028;2022-08-07T02:42:28;93533.81;;;21.16;89.97
11345;BME280;5727;42.600;23.028;2022-08-07T02:44:58;93529.22;;;21.20;89.97
11345;BME280;5727;42.600;23.028;2022-08-07T02:47:26;93514.03;;;21.13;90.30
11345;BME280;5727;42.600;23.028;2022-08-07T02:49:53;93504.50;;;21.16;90.56
11345;BME280;5727;42.600;23.028;2022-08-07T02:52:22;93506.72;;;21.24;90.15
11345;BME280;5727;42.600;23.028;2022-08-07T02:54:52;93488.34;;;21.33;90.20
11345;BME280;5727;42.600;23.028;2022-08-07T02:57:20;93491.75;;;21.34;90.37
11345;BME280;5727;42.600;23.028;2022-08-07T02:59:48;93482.50;;;21.45;91.14
11345;BME280;5727;42.600;23.028;2022-08-07T03:02:17;93475.56;;;21.51;92.29
11345;BME280;5727;42.600;23.028;2022-08-07T03:04:45;93462.16;;;21.58;92.51
11345;BME280;5727;42.600;23.028;2022-08-07T03:07:14;93460.50;;;21.68;92.39
11345;BME280;5727;42.600;23.028;2022-08-07T03:09:42;93459.34;;;21.69;92.44
11345;BME280;5727;42.600;23.028;2022-08-07T03:12:09;93460.84;;;21.70;91.82
11345;BME280;5727;42.600;23.028;2022-08-07T03:14:38;93465.72;;;21.75;91.93
11345;BME280;5727;42.600;23.028;2022-08-07T03:17:05;93474.13;;;21.73;92.51
11345;BME280;5727;42.600;23.028;2022-08-07T03:19:35;93474.84;;;21.77;91.82
11345;BME280;5727;42.600;23.028;2022-08-07T03:22:02;93485.69;;;21.63;91.42
11345;BME280;5727;42.600;23.028;2022-08-07T03:24:30;93489.53;;;21.62;91.69
11345;BME280;5727;42.600;23.028;2022-08-07T03:26:59;93488.72;;;21.65;91.76
11345;BME280;5727;42.600;23.028;2022-08-07T03:29:27;93487.88;;;21.72;91.58
11345;BME280;5727;42.600;23.028;2022-08-07T03:31:55;93490.44;;;21.82;91.98
11345;BME280;5727;42.600;23.028;2022-08-07T03:34:25;93488.78;;;21.92;91.29
11345;BME280;5727;42.600;23.028;2022-08-07T03:36:54;93482.25;;;21.97;91.02
11345;BME280;5727;42.600;23.028;2022-08-07T03:39:21;93482.25;;;21.97;92.20
11345;BME280;5727;42.600;23.028;2022-08-07T03:41:49;93489.06;;;22.01;93.12
11345;BME280;5727;42.600;23.028;2022-08-07T03:44:16;93483.84;;;21.91;92.25
11345;BME280;5727;42.600;23.028;2022-08-07T03:46:43;93482.50;;;21.75;93.82
11345;BME280;5727;42.600;23.028;2022-08-07T03:49:10;93481.53;;;21.62;94.51
11345;BME280;5727;42.600;23.028;2022-08-07T03:51:37;93490.03;;;21.50;94.76
11345;BME280;5727;42.600;23.028;2022-08-07T03:54:06;93481.69;;;21.48;95.46
11345;BME280;5727;42.600;23.028;2022-08-07T03:56:34;93478.75;;;21.39;95.80
11345;BME280;5727;42.600;23.028;2022-08-07T03:59:04;93481.06;;;21.37;95.34
11345;BME280;5727;42.600;23.028;2022-08-07T04:01:31;93486.91;;;21.25;95.63
11345;BME280;5727;42.600;23.028;2022-08-07T04:03:59;93490.31;;;21.26;95.92
11345;BME280;5727;42.600;23.028;2022-08-07T04:06:26;93491.81;;;21.30;95.44
11345;BME280;5727;42.600;23.028;2022-08-07T04:08:53;93495.97;;;21.31;94.79
11345;BME280;5727;42.600;23.028;2022-08-07T04:11:21;93496.09;;;21.17;94.73
11345;BME280;5727;42.600;23.028;2022-08-07T04:13:48;93499.84;;;21.23;95.14
11345;BME280;5727;42.600;23.028;2022-08-07T04:16:16;93499.81;;;21.30;94.16
11345;BME280;5727;42.600;23.028;2022-08-07T04:18:43;93506.53;;;21.42;94.24
11345;BME280;5727;42.600;23.028;2022-08-07T04:21:09;93500.34;;;21.48;93.45
11345;BME280;5727;42.600;23.028;2022-08-07T04:23:36;93507.03;;;21.63;92.76
11345;BME280;5727;42.600;23.028;2022-08-07T04:26:05;93503.75;;;21.82;91.66
11345;BME280;5727;42.600;23.028;2022-08-07T04:28:34;93510.44;;;21.98;90.99
11345;BME280;5727;42.600;23.028;2022-08-07T04:31:01;93512.84;;;21.89;91.20
11345;BME280;5727;42.600;23.028;2022-08-07T04:33:28;93511.13;;;21.71;92.24
11345;BME280;5727;42.600;23.028;2022-08-07T04:35:55;93506.75;;;21.88;91.58
11345;BME280;5727;42.600;23.028;2022-08-07T04:38:24;93511.13;;;22.02;91.37
11345;BME280;5727;42.600;23.028;2022-08-07T04:40:51;93511.53;;;22.00;90.83
11345;BME280;5727;42.600;23.028;2022-08-07T04:43:21;93512.84;;;22.15;90.44
11345;BME280;5727;42.600;23.028;2022-08-07T04:45:55;93517.66;;;22.27;90.27
11345;BME280;5727;42.600;23.028;2022-08-07T04:48:31;93517.53;;;22.34;90.10
11345;BME280;5727;42.600;23.028;2022-08-07T04:51:14;93524.47;;;22.32;90.77
11345;BME280;5727;42.600;23.028;2022-08-07T04:53:45;93528.06;;;22.45;90.22
11345;BME280;5727;42.600;23.028;2022-08-07T04:56:19;93519.66;;;22.46;90.32
11345;BME280;5727;42.600;23.028;2022-08-07T04:58:51;93523.84;;;22.47;90.61
11345;BME280;5727;42.600;23.028;2022-08-07T05:01:30;93517.94;;;22.63;90.17
11345;BME280;5727;42.600;23.028;2022-08-07T05:04:03;93526.88;;;22.76;90.24
11345;BME280;5727;42.600;23.028;2022-08-07T05:06:35;93525.34;;;22.75;90.27
11345;BME280;5727;42.600;23.028;2022-08-07T05:09:07;93524.34;;;22.89;89.61
11345;BME280;5727;42.600;23.028;2022-08-07T05:11:42;93534.13;;;22.99;90.20
11345;BME280;5727;42.600;23.028;2022-08-07T05:14:13;93531.72;;;22.81;91.12
11345;BME280;5727;42.600;23.028;2022-08-07T05:16:44;93541.22;;;22.86;90.51
11345;BME280;5727;42.600;23.028;2022-08-07T05:19:15;93546.72;;;22.75;90.54
11345;BME280;5727;42.600;23.028;2022-08-07T05:21:46;93547.41;;;22.79;90.40
11345;BME280;5727;42.600;23.028;2022-08-07T05:24:15;93550.31;;;22.88;90.84
11345;BME280;5727;42.600;23.028;2022-08-07T05:26:45;93556.00;;;22.90;91.36
11345;BME280;5727;42.600;23.028;2022-08-07T05:29:15;93561.25;;;22.97;91.35
11345;BME280;5727;42.600;23.028;2022-08-07T05:31:45;93563.81;;;23.04;90.90
11345;BME280;5727;42.600;23.028;2022-08-07T05:34:15;93549.63;;;23.07;91.92
11345;BME280;5727;42.600;23.028;2022-08-07T05:36:43;93550.78;;;23.06;92.51
11345;BME280;5727;42.600;23.028;2022-08-07T05:39:11;93550.28;;;22.92;93.28
11345;BME280;5727;42.600;23.028;2022-08-07T05:41:39;93560.84;;;22.99;94.18
11345;BME280;5727;42.600;23.028;2022-08-07T05:44:07;93555.66;;;22.88;94.85
11345;BME280;5727;42.600;23.028;2022-08-07T05:46:36;93548.06;;;22.87;94.87
11345;BME280;5727;42.600;23.028;2022-08-07T05:49:06;93554.38;;;22.96;93.21
11345;BME280;5727;42.600;23.028;2022-08-07T05:51:34;93556.56;;;23.05;94.69
11345;BME280;5727;42.600;23.028;2022-08-07T05:54:01;93568.91;;;23.18;93.18
11345;BME280;5727;42.600;23.028;2022-08-07T05:56:28;93572.91;;;23.30;92.10
11345;BME280;5727;42.600;23.028;2022-08-07T05:58:57;93568.59;;;23.39;92.15
11345;BME280;5727;42.600;23.028;2022-08-07T06:01:25;93576.81;;;23.48;90.65
11345;BME280;5727;42.600;23.028;2022-08-07T06:03:55;93577.03;;;23.57;92.46
11345;BME280;5727;42.600;23.028;2022-08-07T06:06:24;93580.03;;;23.59;90.12
11345;BME280;5727;42.600;23.028;2022-08-07T06:08:51;93580.31;;;23.65;91.41
11345;BME280;5727;42.600;23.028;2022-08-07T06:11:19;93580.06;;;23.79;90.65
11345;BME280;5727;42.600;23.028;2022-08-07T06:13:46;93583.34;;;23.87;87.55
11345;BME280;5727;42.600;23.028;2022-08-07T06:16:14;93594.47;;;23.85;88.64
11345;BME280;5727;42.600;23.028;2022-08-07T06:18:40;93593.72;;;23.85;89.38
11345;BME280;5727;42.600;23.028;2022-08-07T06:21:07;93597.78;;;23.93;87.25
11345;BME280;5727;42.600;23.028;2022-08-07T06:23:37;93588.66;;;24.10;87.29
11345;BME280;5727;42.600;23.028;2022-08-07T06:26:05;93592.63;;;24.41;86.53
11345;BME280;5727;42.600;23.028;2022-08-07T06:28:32;93585.09;;;24.52;82.57
11345;BME280;5727;42.600;23.028;2022-08-07T06:30:59;93581.66;;;24.51;80.63
11345;BME280;5727;42.600;23.028;2022-08-07T06:33:26;93588.97;;;24.67;81.66
11345;BME280;5727;42.600;23.028;2022-08-07T06:35:53;93580.72;;;24.78;79.75
11345;BME280;5727;42.600;23.028;2022-08-07T06:38:20;93583.66;;;24.83;77.40
11345;BME280;5727;42.600;23.028;2022-08-07T06:40:50;93579.47;;;24.82;77.46
11345;BME280;5727;42.600;23.028;2022-08-07T06:43:20;93578.56;;;24.89;76.38
11345;BME280;5727;42.600;23.028;2022-08-07T06:45:48;93582.91;;;24.99;78.03
11345;BME280;5727;42.600;23.028;2022-08-07T06:48:16;93595.72;;;25.07;77.06
11345;BME280;5727;42.600;23.028;2022-08-07T06:50:45;93587.88;;;25.16;77.50
11345;BME280;5727;42.600;23.028;2022-08-07T06:53:14;93589.50;;;25.26;76.34
11345;BME280;5727;42.600;23.028;2022-08-07T06:55:41;93592.13;;;25.30;77.60
11345;BME280;5727;42.600;23.028;2022-08-07T06:58:11;93588.44;;;25.40;76.71
11345;BME280;5727;42.600;23.028;2022-08-07T07:00:40;93591.69;;;25.48;76.26
11345;BME280;5727;42.600;23.028;2022-08-07T07:03:08;93590.66;;;25.58;74.54
11345;BME280;5727;42.600;23.028;2022-08-07T07:05:35;93590.25;;;25.59;74.54
11345;BME280;5727;42.600;23.028;2022-08-07T07:08:03;93593.78;;;25.56;74.81
11345;BME280;5727;42.600;23.028;2022-08-07T07:10:31;93585.50;;;25.51;74.68
11345;BME280;5727;42.600;23.028;2022-08-07T07:13:03;93587.56;;;25.59;74.70
11345;BME280;5727;42.600;23.028;2022-08-07T07:15:40;93595.69;;;25.72;74.34
11345;BME280;5727;42.600;23.028;2022-08-07T07:18:13;93594.50;;;25.73;73.61
11345;BME280;5727;42.600;23.028;2022-08-07T07:20:46;93584.28;;;25.68;73.68
11345;BME280;5727;42.600;23.028;2022-08-07T07:23:15;93591.91;;;25.69;74.07
11345;BME280;5727;42.600;23.028;2022-08-07T07:25:43;93590.13;;;25.79;72.46
11345;BME280;5727;42.600;23.028;2022-08-07T07:28:16;93586.84;;;25.87;72.32
11345;BME280;5727;42.600;23.028;2022-08-07T07:30:48;93594.16;;;25.99;71.36
11345;BME280;5727;42.600;23.028;2022-08-07T07:33:16;93584.56;;;26.14;70.73
11345;BME280;5727;42.600;23.028;2022-08-07T07:35:48;93594.88;;;26.16;70.30
11345;BME280;5727;42.600;23.028;2022-08-07T07:38:17;93578.22;;;26.21;68.84
11345;BME280;5727;42.600;23.028;2022-08-07T07:40:45;93593.72;;;26.30;68.15
11345;BME280;5727;42.600;23.028;2022-08-07T07:43:14;93581.56;;;26.25;67.89
11345;BME280;5727;42.600;23.028;2022-08-07T07:45:45;93596.81;;;26.28;67.09
11345;BME280;5727;42.600;23.028;2022-08-07T07:48:16;93595.25;;;26.43;69.59
11345;BME280;5727;42.600;23.028;2022-08-07T07:50:45;93594.00;;;26.60;68.99
11345;BME280;5727;42.600;23.028;2022-08-07T07:53:14;93595.63;;;26.70;67.34
11345;BME280;5727;42.600;23.028;2022-08-07T07:55:43;93595.63;;;26.83;63.53
11345;BME280;5727;42.600;23.028;2022-08-07T07:58:10;93597.75;;;26.88;63.53
11345;BME280;5727;42.600;23.028;2022-08-07T08:00:40;93591.97;;;26.89;64.65
11345;BME280;5727;42.600;23.028;2022-08-07T08:03:10;93588.84;;;27.03;64.98
11345;BME280;5727;42.600;23.028;2022-08-07T08:05:39;93593.25;;;26.97;63.54
11345;BME280;5727;42.600;23.028;2022-08-07T08:08:07;93595.72;;;27.04;63.24
11345;BME280;5727;42.600;23.028;2022-08-07T08:10:38;93591.41;;;27.07;62.68
11345;BME280;5727;42.600;23.028;2022-08-07T08:13:06;93598.75;;;27.06;63.71
11345;BME280;5727;42.600;23.028;2022-08-07T08:15:36;93593.25;;;27.10;63.92
11345;BME280;5727;42.600;23.028;2022-08-07T08:18:09;93601.84;;;27.05;64.19
11345;BME280;5727;42.600;23.028;2022-08-07T08:20:38;93603.47;;;27.02;64.88
11345;BME280;5727;42.600;23.028;2022-08-07T08:23:06;93609.81;;;27.08;63.40
11345;BME280;5727;42.600;23.028;2022-08-07T08:25:51;93600.63;;;27.18;61.76
11345;BME280;5727;42.600;23.028;2022-08-07T08:28:40;93615.69;;;27.29;62.51
11345;BME280;5727;42.600;23.028;2022-08-07T08:31:09;93603.44;;;27.28;62.43
11345;BME280;5727;42.600;23.028;2022-08-07T08:33:40;93609.81;;;27.34;61.12
11345;BME280;5727;42.600;23.028;2022-08-07T08:36:09;93613.03;;;27.41;61.47
11345;BME280;5727;42.600;23.028;2022-08-07T08:38:39;93605.53;;;27.58;61.40
11345;BME280;5727;42.600;23.028;2022-08-07T08:41:13;93606.81;;;27.66;58.98
11345;BME280;5727;42.600;23.028;2022-08-07T08:43:48;93601.94;;;27.73;57.69
11345;BME280;5727;42.600;23.028;2022-08-07T08:46:25;93599.13;;;27.77;58.46
11345;BME280;5727;42.600;23.028;2022-08-07T08:49:00;93596.81;;;27.88;60.08
11345;BME280;5727;42.600;23.028;2022-08-07T08:51:30;93599.94;;;27.99;57.53
11345;BME280;5727;42.600;23.028;2022-08-07T08:54:03;93601.13;;;27.98;57.79
11345;BME280;5727;42.600;23.028;2022-08-07T08:56:35;93591.31;;;27.91;58.39
11345;BME280;5727;42.600;23.028;2022-08-07T08:59:06;93598.09;;;27.96;59.71
11345;BME280;5727;42.600;23.028;2022-08-07T09:01:42;93593.78;;;27.98;59.05
11345;BME280;5727;42.600;23.028;2022-08-07T09:04:17;93603.00;;;28.10;58.55
11345;BME280;5727;42.600;23.028;2022-08-07T09:06:54;93595.16;;;28.25;58.18
11345;BME280;5727;42.600;23.028;2022-08-07T09:09:41;93598.78;;;28.31;56.71
11345;BME280;5727;42.600;23.028;2022-08-07T09:12:21;93592.47;;;28.03;57.23
11345;BME280;5727;42.600;23.028;2022-08-07T09:15:03;93595.28;;;28.21;57.95
11345;BME280;5727;42.600;23.028;2022-08-07T09:17:41;93600.09;;;28.26;57.08
11345;BME280;5727;42.600;23.028;2022-08-07T09:20:17;93602.13;;;28.35;56.31
11345;BME280;5727;42.600;23.028;2022-08-07T09:22:56;93601.34;;;28.34;57.42
11345;BME280;5727;42.600;23.028;2022-08-07T09:25:33;93591.81;;;28.42;56.39
11345;BME280;5727;42.600;23.028;2022-08-07T09:28:06;93601.28;;;28.47;54.29
11345;BME280;5727;42.600;23.028;2022-08-07T09:30:50;93594.66;;;28.60;55.04
11345;BME280;5727;42.600;23.028;2022-08-07T09:33:34;93583.91;;;28.48;55.60
11345;BME280;5727;42.600;23.028;2022-08-07T09:36:13;93584.19;;;28.62;54.58
11345;BME280;5727;42.600;23.028;2022-08-07T09:38:46;93594.81;;;28.66;53.25
11345;BME280;5727;42.600;23.028;2022-08-07T09:41:41;93596.22;;;28.79;53.28
11345;BME280;5727;42.600;23.028;2022-08-07T09:44:18;93585.69;;;28.72;53.46
11345;BME280;5727;42.600;23.028;2022-08-07T09:47:02;93587.69;;;28.81;54.21
11345;BME280;5727;42.600;23.028;2022-08-07T09:49:42;93591.53;;;28.71;54.87
11345;BME280;5727;42.600;23.028;2022-08-07T09:52:20;93585.88;;;28.78;54.46
11345;BME280;5727;42.600;23.028;2022-08-07T09:54:58;93590.94;;;28.76;54.42
11345;BME280;5727;42.600;23.028;2022-08-07T10:00:33;93570.47;;;28.87;52.77
11345;BME280;5727;42.600;23.028;2022-08-07T10:03:15;93577.25;;;29.01;52.55
11345;BME280;5727;42.600;23.028;2022-08-07T10:06:12;93576.56;;;29.10;52.32
11345;BME280;5727;42.600;23.028;2022-08-07T10:09:08;93566.88;;;29.30;52.81
11345;BME280;5727;42.600;23.028;2022-08-07T10:12:04;93562.38;;;29.45;49.42
11345;BME280;5727;42.600;23.028;2022-08-07T10:15:10;93577.56;;;29.52;48.75
11345;BME280;5727;42.600;23.028;2022-08-07T10:17:58;93569.88;;;29.41;49.82
11345;BME280;5727;42.600;23.028;2022-08-07T10:20:36;93564.66;;;29.47;49.00
11345;BME280;5727;42.600;23.028;2022-08-07T10:23:27;93561.97;;;29.47;50.01
11345;BME280;5727;42.600;23.028;2022-08-07T10:26:06;93573.38;;;29.60;47.73
11345;BME280;5727;42.600;23.028;2022-08-07T10:28:53;93558.97;;;29.63;46.21
11345;BME280;5727;42.600;23.028;2022-08-07T10:31:38;93572.31;;;29.66;47.45
11345;BME280;5727;42.600;23.028;2022-08-07T10:34:22;93559.75;;;29.82;47.73
11345;BME280;5727;42.600;23.028;2022-08-07T10:37:08;93562.91;;;29.89;45.98
11345;BME280;5727;42.600;23.028;2022-08-07T10:39:50;93560.63;;;29.78;45.35
11345;BME280;5727;42.600;23.028;2022-08-07T10:42:29;93567.69;;;29.94;46.85
11345;BME280;5727;42.600;23.028;2022-08-07T10:45:02;93582.38;;;29.66;46.00
11345;BME280;5727;42.600;23.028;2022-08-07T10:47:39;93570.38;;;29.58;44.70
11345;BME280;5727;42.600;23.028;2022-08-07T10:50:12;93580.56;;;29.63;44.33
11345;BME280;5727;42.600;23.028;2022-08-07T10:52:54;93566.50;;;29.86;43.04
11345;BME280;5727;42.600;23.028;2022-08-07T10:55:28;93558.09;;;29.75;44.51
11345;BME280;5727;42.600;23.028;2022-08-07T10:58:07;93571.31;;;29.91;46.00
11345;BME280;5727;42.600;23.028;2022-08-07T11:00:52;93558.69;;;29.79;47.18
11345;BME280;5727;42.600;23.028;2022-08-07T11:03:27;93557.78;;;29.64;47.21
11345;BME280;5727;42.600;23.028;2022-08-07T11:06:01;93565.56;;;29.62;47.10
11345;BME280;5727;42.600;23.028;2022-08-07T11:08:41;93555.97;;;29.70;45.61
11345;BME280;5727;42.600;23.028;2022-08-07T11:11:13;93558.41;;;29.77;45.57
11345;BME280;5727;42.600;23.028;2022-08-07T11:13:46;93542.03;;;29.90;44.78
11345;BME280;5727;42.600;23.028;2022-08-07T11:16:19;93547.13;;;29.88;42.10
11345;BME280;5727;42.600;23.028;2022-08-07T11:18:49;93542.59;;;29.66;40.21
11345;BME280;5727;42.600;23.028;2022-08-07T11:21:26;93552.97;;;29.86;40.36
11345;BME280;5727;42.600;23.028;2022-08-07T11:24:00;93545.78;;;29.92;41.23
11345;BME280;5727;42.600;23.028;2022-08-07T11:26:32;93534.34;;;29.97;42.83
11345;BME280;5727;42.600;23.028;2022-08-07T11:29:06;93555.38;;;29.84;44.56
11345;BME280;5727;42.600;23.028;2022-08-07T11:31:40;93539.19;;;29.84;43.31
11345;BME280;5727;42.600;23.028;2022-08-07T11:34:18;93547.28;;;29.84;40.94
11345;BME280;5727;42.600;23.028;2022-08-07T11:36:57;93547.56;;;30.04;39.21
11345;BME280;5727;42.600;23.028;2022-08-07T11:39:36;93532.28;;;29.83;38.75
11345;BME280;5727;42.600;23.028;2022-08-07T11:42:12;93532.56;;;29.67;40.92
11345;BME280;5727;42.600;23.028;2022-08-07T11:44:48;93535.28;;;29.85;41.65
11345;BME280;5727;42.600;23.028;2022-08-07T11:47:24;93522.91;;;30.20;40.56
11345;BME280;5727;42.600;23.028;2022-08-07T11:50:10;93522.25;;;31.18;38.97
11345;BME280;5727;42.600;23.028;2022-08-07T11:52:54;93519.75;;;33.48;34.94
11345;BME280;5727;42.600;23.028;2022-08-07T11:58:26;93524.03;;;35.61;29.52
11345;BME280;5727;42.600;23.028;2022-08-07T12:01:05;93531.44;;;35.55;29.09
11345;BME280;5727;42.600;23.028;2022-08-07T12:03:50;93531.19;;;33.17;33.23
11345;BME280;5727;42.600;23.028;2022-08-07T12:06:31;93520.47;;;31.77;37.18
11345;BME280;5727;42.600;23.028;2022-08-07T12:09:05;93527.19;;;31.19;38.85
11345;BME280;5727;42.600;23.028;2022-08-07T12:11:38;93533.06;;;30.94;40.16
11345;BME280;5727;42.600;23.028;2022-08-07T12:14:12;93547.81;;;30.42;45.35
11345;BME280;5727;42.600;23.028;2022-08-07T12:16:46;93558.38;;;29.95;54.72
11345;BME280;5727;42.600;23.028;2022-08-07T12:19:25;93562.75;;;29.74;58.22
11345;BME280;5727;42.600;23.028;2022-08-07T12:21:57;93561.22;;;29.46;58.03
11345;BME280;5727;42.600;23.028;2022-08-07T12:24:32;93552.81;;;29.35;58.46
11345;BME280;5727;42.600;23.028;2022-08-07T12:27:02;93554.75;;;29.44;57.29
11345;BME280;5727;42.600;23.028;2022-08-07T12:29:37;93543.38;;;29.58;57.90
11345;BME280;5727;42.600;23.028;2022-08-07T12:32:13;93539.78;;;29.70;56.22
11345;BME280;5727;42.600;23.028;2022-08-07T12:34:42;93535.88;;;29.89;56.19
11345;BME280;5727;42.600;23.028;2022-08-07T12:37:11;93523.16;;;29.71;54.08
11345;BME280;5727;42.600;23.028;2022-08-07T12:39:39;93531.81;;;29.66;53.74
11345;BME280;5727;42.600;23.028;2022-08-07T12:42:09;93529.13;;;29.48;55.04
11345;BME280;5727;42.600;23.028;2022-08-07T12:44:38;93538.84;;;29.55;53.93
11345;BME280;5727;42.600;23.028;2022-08-07T12:47:13;93535.97;;;29.22;51.51
11345;BME280;5727;42.600;23.028;2022-08-07T12:49:50;93539.13;;;29.30;51.63
11345;BME280;5727;42.600;23.028;2022-08-07T12:52:26;93540.19;;;29.41;48.13
11345;BME280;5727;42.600;23.028;2022-08-07T12:54:59;93534.66;;;29.45;47.37
11345;BME280;5727;42.600;23.028;2022-08-07T12:57:30;93514.94;;;31.09;42.13
11345;BME280;5727;42.600;23.028;2022-08-07T12:59:58;93531.22;;;33.57;37.74
11345;BME280;5727;42.600;23.028;2022-08-07T13:02:44;93515.88;;;35.19;35.39
11345;BME280;5727;42.600;23.028;2022-08-07T13:05:21;93519.88;;;35.77;34.49
11345;BME280;5727;42.600;23.028;2022-08-07T13:08:01;93529.53;;;35.83;34.11
11345;BME280;5727;42.600;23.028;2022-08-07T13:10:37;93522.97;;;34.69;36.66
11345;BME280;5727;42.600;23.028;2022-08-07T13:13:19;93528.06;;;34.04;37.94
11345;BME280;5727;42.600;23.028;2022-08-07T13:15:59;93526.03;;;33.39;38.85
11345;BME280;5727;42.600;23.028;2022-08-07T13:18:38;93530.25;;;32.71;37.63
11345;BME280;5727;42.600;23.028;2022-08-07T13:21:13;93539.13;;;31.98;38.64
11345;BME280;5727;42.600;23.028;2022-08-07T13:23:47;93543.16;;;31.65;39.42
11345;BME280;5727;42.600;23.028;2022-08-07T13:26:22;93542.44;;;31.08;40.77
11345;BME280;5727;42.600;23.028;2022-08-07T13:28:58;93540.66;;;31.05;39.62
11345;BME280;5727;42.600;23.028;2022-08-07T13:31:30;93525.34;;;31.02;38.88